createdAt,value
2022-12-13T00:00:09.107Z,0
2022-12-13T00:09:45.445Z,0
2022-12-13T00:19:20.879Z,0
2022-12-13T00:28:57.743Z,0
2022-12-13T00:38:32.800Z,0
2022-12-13T00:48:08.848Z,0
2022-12-13T00:57:44.773Z,0
2022-12-13T01:07:21.317Z,0
2022-12-13T01:16:56.786Z,0
2022-12-13T01:26:32.729Z,0
2022-12-13T01:36:08.800Z,0
2022-12-13T01:45:44.835Z,0
2022-12-13T01:55:20.685Z,0
2022-12-13T02:04:56.295Z,0
2022-12-13T02:14:31.874Z,0
2022-12-13T02:24:08.677Z,0
2022-12-13T02:33:43.918Z,0
2022-12-13T02:43:21.403Z,0
2022-12-13T02:52:56.018Z,0
2022-12-13T03:02:32.127Z,0
2022-12-13T03:12:07.925Z,0
2022-12-13T03:21:47.854Z,0
2022-12-13T03:31:20.183Z,0
2022-12-13T03:40:55.841Z,0
2022-12-13T03:50:31.357Z,0
2022-12-13T04:00:06.859Z,0
2022-12-13T04:09:42.888Z,0
2022-12-13T04:19:22.826Z,0
2022-12-13T04:28:54.943Z,0
2022-12-13T04:38:30.428Z,0
2022-12-13T04:48:06.562Z,0
2022-12-13T04:57:42.466Z,0
2022-12-13T05:07:19.090Z,0
2022-12-13T05:16:54.520Z,0
2022-12-13T05:26:29.230Z,0
2022-12-13T05:36:04.921Z,0
2022-12-13T05:45:40.938Z,0
2022-12-13T05:55:20.157Z,0
2022-12-13T06:04:53.327Z,0
2022-12-13T06:14:29.775Z,0
2022-12-13T06:24:07.009Z,0
2022-12-13T06:33:41.868Z,0
2022-12-13T06:43:17.140Z,0
2022-12-13T06:52:52.753Z,0
2022-12-13T07:02:28.877Z,5.63
2022-12-13T07:12:05.162Z,11.25
2022-12-13T07:21:41.197Z,16.88
2022-12-13T07:31:17.382Z,28.13
2022-12-13T07:40:53.790Z,39.38
2022-12-13T07:50:29.945Z,56.25
2022-12-13T08:00:07.565Z,67.5
2022-12-13T08:09:45.643Z,78.75
2022-12-13T08:19:19.698Z,90
2022-12-13T08:28:56.329Z,101.25
2022-12-13T08:38:33.052Z,118.13
2022-12-13T08:48:09.639Z,123.75
2022-12-13T08:57:45.879Z,135
2022-12-13T09:07:22.478Z,135
2022-12-13T09:17:02.700Z,140.63
2022-12-13T09:26:37.606Z,146.25
2022-12-13T09:36:12.503Z,168.75
2022-12-13T09:45:49.461Z,168.75
2022-12-13T09:55:26.299Z,168.75
2022-12-13T10:05:04.229Z,180
2022-12-13T10:14:39.940Z,185.63
2022-12-13T10:24:26.265Z,230.63
2022-12-13T10:33:53.716Z,213.75
2022-12-13T10:43:30.704Z,219.38
2022-12-13T10:53:06.743Z,213.75
2022-12-13T11:02:43.345Z,213.75
2022-12-13T11:12:19.909Z,213.75
2022-12-13T11:21:56.681Z,219.38
2022-12-13T11:31:33.542Z,213.75
2022-12-13T11:41:10.548Z,219.38
2022-12-13T11:50:47.012Z,219.38
2022-12-13T12:00:33.499Z,213.75
2022-12-13T12:10:00.388Z,219.38
2022-12-13T12:19:37.375Z,219.38
2022-12-13T12:29:13.785Z,213.75
2022-12-13T12:38:50.562Z,208.13
2022-12-13T12:48:53.661Z,208.13
2022-12-13T12:58:05.519Z,821.25
2022-12-13T13:08:23.458Z,3442.5
2022-12-13T13:18:06.838Z,1535.63
2022-12-13T13:27:31.747Z,1310.63
2022-12-13T13:36:59.070Z,821.25
2022-12-13T13:46:34.113Z,1771.88
2022-12-13T13:56:17.004Z,1299.38
2022-12-13T14:05:53.965Z,1237.5
2022-12-13T14:15:13.379Z,163.13
2022-12-13T14:24:43.675Z,95.63
2022-12-13T14:34:16.334Z,73.13
2022-12-13T14:43:50.279Z,56.25
2022-12-13T14:53:24.599Z,39.38
2022-12-13T15:02:59.083Z,22.5
2022-12-13T15:12:34.320Z,11.25
2022-12-13T15:22:09.559Z,0
2022-12-13T15:31:48.619Z,0
2022-12-13T15:41:20.511Z,0
2022-12-13T15:50:56.028Z,0
2022-12-13T16:00:32.056Z,0
2022-12-13T16:10:07.243Z,0
2022-12-13T16:19:42.803Z,0
2022-12-13T16:29:20.632Z,0
2022-12-13T16:38:54.783Z,0
2022-12-13T16:48:30.992Z,0
2022-12-13T16:58:06.010Z,0
2022-12-13T17:07:41.776Z,0
2022-12-13T17:17:18.188Z,0
2022-12-13T17:26:54.163Z,0
2022-12-13T17:36:29.527Z,0
2022-12-13T17:46:05.003Z,0
2022-12-13T17:55:40.759Z,0
2022-12-13T18:05:18.078Z,0
2022-12-13T18:14:52.836Z,0
2022-12-13T18:24:28.444Z,0
2022-12-13T18:34:04.287Z,0
2022-12-13T18:43:40.125Z,0
2022-12-13T18:53:16.536Z,0
2022-12-13T19:02:52.538Z,0
2022-12-13T19:12:28.366Z,0
2022-12-13T19:22:04.424Z,0
2022-12-13T19:31:40.408Z,0
2022-12-13T19:41:16.239Z,0
2022-12-13T19:50:53.342Z,0
2022-12-13T20:00:28.571Z,0
2022-12-13T20:10:04.453Z,0
2022-12-13T20:19:40.273Z,0
2022-12-13T20:29:16.358Z,0
2022-12-13T20:38:53.580Z,0
2022-12-13T20:48:28.781Z,0
2022-12-13T20:58:04.687Z,0
2022-12-13T21:07:40.800Z,0
2022-12-13T21:17:16.837Z,0
2022-12-13T21:26:52.706Z,0
2022-12-13T21:36:29.106Z,0
2022-12-13T21:46:05.237Z,0
2022-12-13T21:55:41.382Z,0
2022-12-13T22:05:17.850Z,0
2022-12-13T22:14:54.270Z,0
2022-12-13T22:24:30.545Z,0
2022-12-13T22:34:06.719Z,0
2022-12-13T22:43:43.062Z,0
2022-12-13T22:53:18.969Z,0
2022-12-13T23:02:55.258Z,0
2022-12-13T23:12:31.568Z,0
2022-12-13T23:22:08.016Z,0
2022-12-13T23:31:48.463Z,0
2022-12-13T23:41:23.370Z,0
2022-12-13T23:50:56.810Z,0
